sensor_id;sensor_type;location;lat;lon;timestamp;temperature;humidity
5118;DHT22;2578;51.622;7.046;2023-02-24T00:02:04;3.30;99.90
5118;DHT22;2578;51.622;7.046;2023-02-24T00:04:37;3.20;1.00
5118;DHT22;2578;51.622;7.046;2023-02-24T00:07:04;3.20;1.00
5118;DHT22;2578;51.622;7.046;2023-02-24T00:09:31;3.30;99.90
5118;DHT22;2578;51.622;7.046;2023-02-24T00:12:00;3.20;99.90
5118;DHT22;2578;51.622;7.046;2023-02-24T00:14:28;3.10;99.90
5118;DHT22;2578;51.622;7.046;2023-02-24T00:16:55;3.10;99.90
5118;DHT22;2578;51.622;7.046;2023-02-24T00:19:24;3.00;99.90
5118;DHT22;2578;51.622;7.046;2023-02-24T00:21:50;2.90;99.90
5118;DHT22;2578;51.622;7.046;2023-02-24T00:24:19;2.80;99.90
5118;DHT22;2578;51.622;7.046;2023-02-24T00:26:44;2.70;99.90
5118;DHT22;2578;51.622;7.046;2023-02-24T00:29:11;2.70;99.90
5118;DHT22;2578;51.622;7.046;2023-02-24T00:31:40;2.70;99.90
5118;DHT22;2578;51.622;7.046;2023-02-24T00:34:08;2.60;1.00
5118;DHT22;2578;51.622;7.046;2023-02-24T00:36:34;2.60;1.00
5118;DHT22;2578;51.622;7.046;2023-02-24T00:39:03;2.40;1.00
5118;DHT22;2578;51.622;7.046;2023-02-24T00:41:34;2.30;99.90
5118;DHT22;2578;51.622;7.046;2023-02-24T00:44:03;2.20;1.00
5118;DHT22;2578;51.622;7.046;2023-02-24T00:46:38;2.00;99.90
5118;DHT22;2578;51.622;7.046;2023-02-24T00:49:07;1.90;1.00
5118;DHT22;2578;51.622;7.046;2023-02-24T00:51:39;1.90;1.00
5118;DHT22;2578;51.622;7.046;2023-02-24T00:54:06;1.90;1.00
5118;DHT22;2578;51.622;7.046;2023-02-24T00:56:32;1.90;99.90
5118;DHT22;2578;51.622;7.046;2023-02-24T00:58:59;1.80;99.90
5118;DHT22;2578;51.622;7.046;2023-02-24T01:01:30;1.80;1.00
5118;DHT22;2578;51.622;7.046;2023-02-24T01:03:57;1.80;65.30
5118;DHT22;2578;51.622;7.046;2023-02-24T01:06:26;1.90;78.80
5118;DHT22;2578;51.622;7.046;2023-02-24T01:08:53;1.90;1.00
5118;DHT22;2578;51.622;7.046;2023-02-24T01:11:22;2.00;1.00
5118;DHT22;2578;51.622;7.046;2023-02-24T01:14:16;2.00;1.00
5118;DHT22;2578;51.622;7.046;2023-02-24T01:16:42;1.90;99.90
5118;DHT22;2578;51.622;7.046;2023-02-24T01:19:15;2.00;1.00
5118;DHT22;2578;51.622;7.046;2023-02-24T01:21:41;1.90;99.90
5118;DHT22;2578;51.622;7.046;2023-02-24T01:24:06;1.90;99.90
5118;DHT22;2578;51.622;7.046;2023-02-24T01:26:32;1.90;99.90
5118;DHT22;2578;51.622;7.046;2023-02-24T01:28:58;2.00;1.00
5118;DHT22;2578;51.622;7.046;2023-02-24T01:31:23;2.20;24.80
5118;DHT22;2578;51.622;7.046;2023-02-24T01:33:49;2.20;1.00
5118;DHT22;2578;51.622;7.046;2023-02-24T01:36:22;2.20;99.90
5118;DHT22;2578;51.622;7.046;2023-02-24T01:38:48;2.20;1.00
5118;DHT22;2578;51.622;7.046;2023-02-24T01:41:16;2.20;99.90
5118;DHT22;2578;51.622;7.046;2023-02-24T01:46:37;2.30;99.60
5118;DHT22;2578;51.622;7.046;2023-02-24T01:51:48;2.30;1.00
5118;DHT22;2578;51.622;7.046;2023-02-24T01:54:16;2.30;1.00
5118;DHT22;2578;51.622;7.046;2023-02-24T01:56:53;2.30;1.00
5118;DHT22;2578;51.622;7.046;2023-02-24T01:59:23;2.30;1.00
5118;DHT22;2578;51.622;7.046;2023-02-24T02:01:50;2.30;1.00
5118;DHT22;2578;51.622;7.046;2023-02-24T02:04:30;2.20;1.00
5118;DHT22;2578;51.622;7.046;2023-02-24T02:06:59;2.20;1.00
5118;DHT22;2578;51.622;7.046;2023-02-24T02:09:25;2.20;18.40
5118;DHT22;2578;51.622;7.046;2023-02-24T02:11:51;2.10;1.00
5118;DHT22;2578;51.622;7.046;2023-02-24T02:14:21;2.10;1.00
5118;DHT22;2578;51.622;7.046;2023-02-24T02:17:01;2.00;1.00
5118;DHT22;2578;51.622;7.046;2023-02-24T02:25:17;1.90;1.00
5118;DHT22;2578;51.622;7.046;2023-02-24T02:43:55;2.20;99.90
5118;DHT22;2578;51.622;7.046;2023-02-24T02:49:34;2.20;97.60
5118;DHT22;2578;51.622;7.046;2023-02-24T02:52:13;2.30;99.90
5118;DHT22;2578;51.622;7.046;2023-02-24T02:54:48;2.30;99.90
5118;DHT22;2578;51.622;7.046;2023-02-24T02:57:20;2.40;1.00
5118;DHT22;2578;51.622;7.046;2023-02-24T02:59:58;2.40;99.90
5118;DHT22;2578;51.622;7.046;2023-02-24T03:02:29;2.40;99.90
5118;DHT22;2578;51.622;7.046;2023-02-24T03:05:02;2.40;99.90
5118;DHT22;2578;51.622;7.046;2023-02-24T03:07:32;2.40;88.50
5118;DHT22;2578;51.622;7.046;2023-02-24T03:10:06;2.40;1.00
5118;DHT22;2578;51.622;7.046;2023-02-24T03:12:37;2.40;1.00
5118;DHT22;2578;51.622;7.046;2023-02-24T03:15:06;2.40;1.00
5118;DHT22;2578;51.622;7.046;2023-02-24T03:17:39;2.40;46.60
5118;DHT22;2578;51.622;7.046;2023-02-24T03:20:28;2.30;1.00
5118;DHT22;2578;51.622;7.046;2023-02-24T03:23:01;2.30;1.00
5118;DHT22;2578;51.622;7.046;2023-02-24T03:25:41;2.20;1.00
5118;DHT22;2578;51.622;7.046;2023-02-24T03:28:17;2.10;99.90
5118;DHT22;2578;51.622;7.046;2023-02-24T03:30:47;2.00;99.90
5118;DHT22;2578;51.622;7.046;2023-02-24T03:33:27;1.90;1.00
5118;DHT22;2578;51.622;7.046;2023-02-24T03:35:55;1.70;1.00
5118;DHT22;2578;51.622;7.046;2023-02-24T03:38:29;1.60;99.90
5118;DHT22;2578;51.622;7.046;2023-02-24T03:40:56;1.50;99.90
5118;DHT22;2578;51.622;7.046;2023-02-24T03:43:31;1.40;8.50
5118;DHT22;2578;51.622;7.046;2023-02-24T03:45:58;1.40;99.90
5118;DHT22;2578;51.622;7.046;2023-02-24T03:48:27;1.30;1.00
5118;DHT22;2578;51.622;7.046;2023-02-24T03:50:53;1.40;99.90
5118;DHT22;2578;51.622;7.046;2023-02-24T03:53:48;1.40;93.60
5118;DHT22;2578;51.622;7.046;2023-02-24T04:01:28;1.30;1.00
5118;DHT22;2578;51.622;7.046;2023-02-24T04:12:17;1.40;1.00
5118;DHT22;2578;51.622;7.046;2023-02-24T04:14:53;1.50;1.00
5118;DHT22;2578;51.622;7.046;2023-02-24T04:17:27;1.60;1.00
5118;DHT22;2578;51.622;7.046;2023-02-24T04:19:59;1.80;99.90
5118;DHT22;2578;51.622;7.046;2023-02-24T04:22:26;1.80;99.90
5118;DHT22;2578;51.622;7.046;2023-02-24T04:24:57;1.90;87.20
5118;DHT22;2578;51.622;7.046;2023-02-24T04:27:25;1.90;99.90
5118;DHT22;2578;51.622;7.046;2023-02-24T04:29:55;2.00;1.00
5118;DHT22;2578;51.622;7.046;2023-02-24T04:32:26;2.00;99.90
5118;DHT22;2578;51.622;7.046;2023-02-24T04:34:52;2.00;99.90
5118;DHT22;2578;51.622;7.046;2023-02-24T04:37:25;2.00;99.90
5118;DHT22;2578;51.622;7.046;2023-02-24T04:39:50;2.10;99.90
5118;DHT22;2578;51.622;7.046;2023-02-24T04:42:16;2.10;99.90
5118;DHT22;2578;51.622;7.046;2023-02-24T04:44:44;2.10;99.90
5118;DHT22;2578;51.622;7.046;2023-02-24T04:47:11;2.10;99.90
5118;DHT22;2578;51.622;7.046;2023-02-24T04:49:36;2.10;1.00
5118;DHT22;2578;51.622;7.046;2023-02-24T04:52:06;2.10;1.00
5118;DHT22;2578;51.622;7.046;2023-02-24T04:54:33;2.20;1.00
5118;DHT22;2578;51.622;7.046;2023-02-24T04:56:59;2.50;99.90
5118;DHT22;2578;51.622;7.046;2023-02-24T04:59:26;2.10;9.80
5118;DHT22;2578;51.622;7.046;2023-02-24T05:01:52;2.10;1.00
5118;DHT22;2578;51.622;7.046;2023-02-24T05:04:18;2.10;99.90
5118;DHT22;2578;51.622;7.046;2023-02-24T05:06:44;2.00;1.00
5118;DHT22;2578;51.622;7.046;2023-02-24T05:09:11;1.90;1.00
5118;DHT22;2578;51.622;7.046;2023-02-24T05:11:46;1.70;1.00
5118;DHT22;2578;51.622;7.046;2023-02-24T05:14:14;1.70;99.90
5118;DHT22;2578;51.622;7.046;2023-02-24T05:16:45;1.80;1.00
5118;DHT22;2578;51.622;7.046;2023-02-24T05:19:14;1.80;1.00
5118;DHT22;2578;51.622;7.046;2023-02-24T05:21:59;1.80;54.40
5118;DHT22;2578;51.622;7.046;2023-02-24T05:24:26;1.90;99.90
5118;DHT22;2578;51.622;7.046;2023-02-24T05:26:54;1.90;99.90
5118;DHT22;2578;51.622;7.046;2023-02-24T05:29:31;2.00;99.90
5118;DHT22;2578;51.622;7.046;2023-02-24T05:31:58;2.10;1.00
5118;DHT22;2578;51.622;7.046;2023-02-24T05:34:26;2.10;99.90
5118;DHT22;2578;51.622;7.046;2023-02-24T05:36:52;2.20;94.20
5118;DHT22;2578;51.622;7.046;2023-02-24T05:39:18;2.20;1.00
5118;DHT22;2578;51.622;7.046;2023-02-24T05:41:46;2.30;1.00
5118;DHT22;2578;51.622;7.046;2023-02-24T05:44:17;2.30;1.00
5118;DHT22;2578;51.622;7.046;2023-02-24T05:46:49;2.30;1.00
5118;DHT22;2578;51.622;7.046;2023-02-24T05:49:18;2.30;1.00
5118;DHT22;2578;51.622;7.046;2023-02-24T05:51:49;2.40;1.00
5118;DHT22;2578;51.622;7.046;2023-02-24T05:54:27;2.40;1.00
5118;DHT22;2578;51.622;7.046;2023-02-24T05:57:03;2.40;99.90
5118;DHT22;2578;51.622;7.046;2023-02-24T05:59:29;2.40;99.90
5118;DHT22;2578;51.622;7.046;2023-02-24T06:01:58;2.40;1.00
5118;DHT22;2578;51.622;7.046;2023-02-24T06:04:25;2.30;43.80
5118;DHT22;2578;51.622;7.046;2023-02-24T06:07:22;2.30;1.00
5118;DHT22;2578;51.622;7.046;2023-02-24T06:09:51;2.20;1.00
5118;DHT22;2578;51.622;7.046;2023-02-24T06:12:33;2.10;40.30
5118;DHT22;2578;51.622;7.046;2023-02-24T06:14:59;2.20;33.30
5118;DHT22;2578;51.622;7.046;2023-02-24T06:17:26;2.10;1.00
5118;DHT22;2578;51.622;7.046;2023-02-24T06:19:52;2.10;1.00
5118;DHT22;2578;51.622;7.046;2023-02-24T06:22:21;2.10;1.00
5118;DHT22;2578;51.622;7.046;2023-02-24T06:24:47;2.10;99.90
5118;DHT22;2578;51.622;7.046;2023-02-24T06:27:15;2.10;99.90
5118;DHT22;2578;51.622;7.046;2023-02-24T06:29:47;2.10;99.90
5118;DHT22;2578;51.622;7.046;2023-02-24T06:32:17;2.20;99.90
5118;DHT22;2578;51.622;7.046;2023-02-24T06:34:43;2.10;99.90
5118;DHT22;2578;51.622;7.046;2023-02-24T06:37:11;2.20;1.40
5118;DHT22;2578;51.622;7.046;2023-02-24T06:39:38;2.20;1.00
5118;DHT22;2578;51.622;7.046;2023-02-24T06:42:05;2.20;1.00
5118;DHT22;2578;51.622;7.046;2023-02-24T06:44:35;2.30;1.00
5118;DHT22;2578;51.622;7.046;2023-02-24T06:47:01;2.30;99.90
5118;DHT22;2578;51.622;7.046;2023-02-24T06:49:27;2.30;99.90
5118;DHT22;2578;51.622;7.046;2023-02-24T06:51:54;2.40;99.90
5118;DHT22;2578;51.622;7.046;2023-02-24T06:54:20;2.40;99.90
5118;DHT22;2578;51.622;7.046;2023-02-24T06:56:48;2.40;99.90
5118;DHT22;2578;51.622;7.046;2023-02-24T06:59:13;2.50;99.90
5118;DHT22;2578;51.622;7.046;2023-02-24T07:01:46;2.60;99.90
5118;DHT22;2578;51.622;7.046;2023-02-24T07:04:12;2.60;99.90
5118;DHT22;2578;51.622;7.046;2023-02-24T07:06:40;2.70;31.80
5118;DHT22;2578;51.622;7.046;2023-02-24T07:09:11;2.70;1.00
5118;DHT22;2578;51.622;7.046;2023-02-24T07:11:39;2.80;29.30
5118;DHT22;2578;51.622;7.046;2023-02-24T07:14:09;2.80;99.90
5118;DHT22;2578;51.622;7.046;2023-02-24T07:16:36;2.80;99.90
5118;DHT22;2578;51.622;7.046;2023-02-24T07:19:06;2.90;99.90
5118;DHT22;2578;51.622;7.046;2023-02-24T07:21:39;2.90;99.80
5118;DHT22;2578;51.622;7.046;2023-02-24T07:24:08;3.00;1.00
5118;DHT22;2578;51.622;7.046;2023-02-24T07:26:40;3.00;99.90
5118;DHT22;2578;51.622;7.046;2023-02-24T07:29:12;3.00;1.00
5118;DHT22;2578;51.622;7.046;2023-02-24T07:31:38;3.10;99.90
5118;DHT22;2578;51.622;7.046;2023-02-24T07:34:04;3.10;99.90
5118;DHT22;2578;51.622;7.046;2023-02-24T07:36:31;3.10;99.90
5118;DHT22;2578;51.622;7.046;2023-02-24T07:39:04;3.10;1.00
5118;DHT22;2578;51.622;7.046;2023-02-24T07:41:32;3.20;1.00
5118;DHT22;2578;51.622;7.046;2023-02-24T07:43:58;3.20;99.90
5118;DHT22;2578;51.622;7.046;2023-02-24T07:46:28;3.30;1.00
5118;DHT22;2578;51.622;7.046;2023-02-24T07:48:55;3.30;1.00
5118;DHT22;2578;51.622;7.046;2023-02-24T07:51:23;3.30;99.90
5118;DHT22;2578;51.622;7.046;2023-02-24T07:53:51;3.30;1.00
5118;DHT22;2578;51.622;7.046;2023-02-24T07:56:19;3.30;3.00
5118;DHT22;2578;51.622;7.046;2023-02-24T07:58:52;3.30;99.90
5118;DHT22;2578;51.622;7.046;2023-02-24T08:01:24;3.40;1.00
5118;DHT22;2578;51.622;7.046;2023-02-24T08:03:54;3.40;99.90
5118;DHT22;2578;51.622;7.046;2023-02-24T08:06:24;3.40;99.90
5118;DHT22;2578;51.622;7.046;2023-02-24T08:09:09;3.40;99.90
5118;DHT22;2578;51.622;7.046;2023-02-24T08:11:43;3.50;99.90
5118;DHT22;2578;51.622;7.046;2023-02-24T08:14:12;3.50;99.90
5118;DHT22;2578;51.622;7.046;2023-02-24T08:16:42;3.50;99.90
5118;DHT22;2578;51.622;7.046;2023-02-24T08:19:16;3.60;99.90
5118;DHT22;2578;51.622;7.046;2023-02-24T08:21:47;3.80;99.90
5118;DHT22;2578;51.622;7.046;2023-02-24T08:26:43;3.70;99.90
5118;DHT22;2578;51.622;7.046;2023-02-24T08:29:10;3.70;99.90
5118;DHT22;2578;51.622;7.046;2023-02-24T08:31:35;3.80;99.90
5118;DHT22;2578;51.622;7.046;2023-02-24T08:34:01;3.80;99.90
5118;DHT22;2578;51.622;7.046;2023-02-24T08:36:27;3.80;99.90
5118;DHT22;2578;51.622;7.046;2023-02-24T08:38:52;3.80;99.90
5118;DHT22;2578;51.622;7.046;2023-02-24T08:41:19;3.80;99.90
5118;DHT22;2578;51.622;7.046;2023-02-24T08:43:53;3.80;99.90
5118;DHT22;2578;51.622;7.046;2023-02-24T08:46:22;3.80;99.90
5118;DHT22;2578;51.622;7.046;2023-02-24T08:48:53;3.80;1.00
5118;DHT22;2578;51.622;7.046;2023-02-24T08:54:05;3.90;99.90
5118;DHT22;2578;51.622;7.046;2023-02-24T08:56:36;3.90;99.90
5118;DHT22;2578;51.622;7.046;2023-02-24T08:59:09;4.00;99.90
5118;DHT22;2578;51.622;7.046;2023-02-24T09:01:54;4.00;99.90
5118;DHT22;2578;51.622;7.046;2023-02-24T09:04:41;4.00;99.90
5118;DHT22;2578;51.622;7.046;2023-02-24T09:07:13;4.10;99.90
5118;DHT22;2578;51.622;7.046;2023-02-24T09:09:40;4.20;99.90
5118;DHT22;2578;51.622;7.046;2023-02-24T09:12:07;4.10;99.90
5118;DHT22;2578;51.622;7.046;2023-02-24T09:14:35;4.20;99.90
5118;DHT22;2578;51.622;7.046;2023-02-24T09:17:04;4.20;99.90
5118;DHT22;2578;51.622;7.046;2023-02-24T09:19:43;4.20;99.90
5118;DHT22;2578;51.622;7.046;2023-02-24T09:22:17;4.20;99.90
5118;DHT22;2578;51.622;7.046;2023-02-24T09:25:09;4.20;99.90
5118;DHT22;2578;51.622;7.046;2023-02-24T09:28:10;4.20;99.90
5118;DHT22;2578;51.622;7.046;2023-02-24T09:30:43;4.30;99.90
5118;DHT22;2578;51.622;7.046;2023-02-24T09:33:28;4.30;99.90
5118;DHT22;2578;51.622;7.046;2023-02-24T09:36:02;4.40;99.90
5118;DHT22;2578;51.622;7.046;2023-02-24T09:38:37;4.30;99.90
5118;DHT22;2578;51.622;7.046;2023-02-24T09:41:44;4.30;99.90
5118;DHT22;2578;51.622;7.046;2023-02-24T09:52:24;4.10;1.00
5118;DHT22;2578;51.622;7.046;2023-02-24T09:55:11;4.10;1.00
5118;DHT22;2578;51.622;7.046;2023-02-24T09:58:05;4.10;99.90
5118;DHT22;2578;51.622;7.046;2023-02-24T10:03:30;4.20;99.90
5118;DHT22;2578;51.622;7.046;2023-02-24T10:11:22;4.30;99.90
5118;DHT22;2578;51.622;7.046;2023-02-24T10:14:01;4.30;99.90
5118;DHT22;2578;51.622;7.046;2023-02-24T10:16:31;4.30;99.90
5118;DHT22;2578;51.622;7.046;2023-02-24T10:19:27;4.20;99.90
5118;DHT22;2578;51.622;7.046;2023-02-24T10:22:02;4.30;99.90
5118;DHT22;2578;51.622;7.046;2023-02-24T10:24:42;4.30;99.90
5118;DHT22;2578;51.622;7.046;2023-02-24T10:27:20;4.20;99.90
5118;DHT22;2578;51.622;7.046;2023-02-24T10:30:02;4.20;99.90
5118;DHT22;2578;51.622;7.046;2023-02-24T10:32:55;4.10;99.90
5118;DHT22;2578;51.622;7.046;2023-02-24T10:35:27;4.00;1.00
5118;DHT22;2578;51.622;7.046;2023-02-24T10:38:01;4.00;1.00
5118;DHT22;2578;51.622;7.046;2023-02-24T10:40:31;3.80;1.00
5118;DHT22;2578;51.622;7.046;2023-02-24T10:43:18;3.90;14.90
5118;DHT22;2578;51.622;7.046;2023-02-24T10:45:45;3.80;1.00
5118;DHT22;2578;51.622;7.046;2023-02-24T10:48:19;3.80;17.80
5118;DHT22;2578;51.622;7.046;2023-02-24T10:50:53;3.80;99.90
5118;DHT22;2578;51.622;7.046;2023-02-24T10:53:23;3.90;99.90
5118;DHT22;2578;51.622;7.046;2023-02-24T10:55:57;3.80;99.90
5118;DHT22;2578;51.622;7.046;2023-02-24T10:58:42;3.80;99.90
5118;DHT22;2578;51.622;7.046;2023-02-24T11:01:22;3.70;99.90
5118;DHT22;2578;51.622;7.046;2023-02-24T11:04:13;3.70;99.90
5118;DHT22;2578;51.622;7.046;2023-02-24T11:07:02;3.70;99.90
5118;DHT22;2578;51.622;7.046;2023-02-24T11:09:34;3.60;99.90
5118;DHT22;2578;51.622;7.046;2023-02-24T11:12:34;3.50;99.90
5118;DHT22;2578;51.622;7.046;2023-02-24T11:15:34;3.60;1.00
5118;DHT22;2578;51.622;7.046;2023-02-24T11:18:22;3.60;99.90
5118;DHT22;2578;51.622;7.046;2023-02-24T11:23:28;3.50;1.00
5118;DHT22;2578;51.622;7.046;2023-02-24T11:26:05;3.50;1.00
5118;DHT22;2578;51.622;7.046;2023-02-24T11:29:01;3.60;39.40
5118;DHT22;2578;51.622;7.046;2023-02-24T11:34:51;3.50;99.90
5118;DHT22;2578;51.622;7.046;2023-02-24T11:37:40;3.50;99.90
5118;DHT22;2578;51.622;7.046;2023-02-24T11:42:57;3.50;99.90
5118;DHT22;2578;51.622;7.046;2023-02-24T11:45:38;3.60;1.00
5118;DHT22;2578;51.622;7.046;2023-02-24T11:48:16;3.60;99.90
5118;DHT22;2578;51.622;7.046;2023-02-24T11:51:11;3.60;99.90
5118;DHT22;2578;51.622;7.046;2023-02-24T11:53:54;3.60;1.00
5118;DHT22;2578;51.622;7.046;2023-02-24T11:59:07;3.70;99.90
5118;DHT22;2578;51.622;7.046;2023-02-24T12:06:55;3.70;99.90
5118;DHT22;2578;51.622;7.046;2023-02-24T12:09:27;3.70;1.00
5118;DHT22;2578;51.622;7.046;2023-02-24T12:12:01;3.60;1.00
5118;DHT22;2578;51.622;7.046;2023-02-24T12:14:39;3.50;99.90
5118;DHT22;2578;51.622;7.046;2023-02-24T12:22:55;3.60;99.90
5118;DHT22;2578;51.622;7.046;2023-02-24T12:25:27;3.50;1.00
5118;DHT22;2578;51.622;7.046;2023-02-24T12:31:17;3.50;19.40
5118;DHT22;2578;51.622;7.046;2023-02-24T12:34:09;3.50;1.00
5118;DHT22;2578;51.622;7.046;2023-02-24T12:39:38;3.50;1.00
5118;DHT22;2578;51.622;7.046;2023-02-24T12:42:33;3.50;99.90
5118;DHT22;2578;51.622;7.046;2023-02-24T12:48:04;3.50;34.30
5118;DHT22;2578;51.622;7.046;2023-02-24T12:53:28;3.50;99.90
5118;DHT22;2578;51.622;7.046;2023-02-24T12:56:24;3.50;99.90
5118;DHT22;2578;51.622;7.046;2023-02-24T12:58:56;3.60;1.00
5118;DHT22;2578;51.622;7.046;2023-02-24T13:01:34;3.50;99.90
5118;DHT22;2578;51.622;7.046;2023-02-24T13:09:07;3.60;78.60
5118;DHT22;2578;51.622;7.046;2023-02-24T13:16:50;3.70;1.00
5118;DHT22;2578;51.622;7.046;2023-02-24T13:19:28;3.70;99.90
5118;DHT22;2578;51.622;7.046;2023-02-24T13:22:00;3.70;1.00
5118;DHT22;2578;51.622;7.046;2023-02-24T13:24:28;3.70;1.00
5118;DHT22;2578;51.622;7.046;2023-02-24T13:29:29;3.80;1.00
5118;DHT22;2578;51.622;7.046;2023-02-24T13:31:55;3.80;1.00
5118;DHT22;2578;51.622;7.046;2023-02-24T13:36:50;3.80;1.00
5118;DHT22;2578;51.622;7.046;2023-02-24T13:39:24;3.90;1.00
5118;DHT22;2578;51.622;7.046;2023-02-24T13:42:04;3.90;99.90
5118;DHT22;2578;51.622;7.046;2023-02-24T13:44:30;3.90;99.90
5118;DHT22;2578;51.622;7.046;2023-02-24T14:03:27;4.10;99.90
5118;DHT22;2578;51.622;7.046;2023-02-24T14:05:54;4.10;1.00
5118;DHT22;2578;51.622;7.046;2023-02-24T14:08:27;4.10;1.00
5118;DHT22;2578;51.622;7.046;2023-02-24T14:10:56;4.10;99.90
5118;DHT22;2578;51.622;7.046;2023-02-24T14:13:28;4.10;99.90
5118;DHT22;2578;51.622;7.046;2023-02-24T14:16:00;4.20;1.00
5118;DHT22;2578;51.622;7.046;2023-02-24T14:18:28;4.30;28.40
5118;DHT22;2578;51.622;7.046;2023-02-24T14:20:55;4.30;1.00
5118;DHT22;2578;51.622;7.046;2023-02-24T14:23:29;4.40;1.00
5118;DHT22;2578;51.622;7.046;2023-02-24T14:26:04;4.40;91.50
5118;DHT22;2578;51.622;7.046;2023-02-24T14:28:35;4.50;52.40
5118;DHT22;2578;51.622;7.046;2023-02-24T14:31:06;4.50;1.00
5118;DHT22;2578;51.622;7.046;2023-02-24T14:33:34;4.50;17.30
5118;DHT22;2578;51.622;7.046;2023-02-24T14:36:04;4.50;99.90
5118;DHT22;2578;51.622;7.046;2023-02-24T14:38:36;4.60;1.00
5118;DHT22;2578;51.622;7.046;2023-02-24T14:41:15;4.80;1.00
5118;DHT22;2578;51.622;7.046;2023-02-24T14:43:42;4.80;1.00
5118;DHT22;2578;51.622;7.046;2023-02-24T14:46:08;5.00;1.00
5118;DHT22;2578;51.622;7.046;2023-02-24T14:48:34;5.00;99.90
5118;DHT22;2578;51.622;7.046;2023-02-24T14:51:04;5.10;99.90
5118;DHT22;2578;51.622;7.046;2023-02-24T14:53:32;5.10;1.00
5118;DHT22;2578;51.622;7.046;2023-02-24T14:56:01;5.20;1.00
5118;DHT22;2578;51.622;7.046;2023-02-24T14:58:42;5.10;99.90
5118;DHT22;2578;51.622;7.046;2023-02-24T15:01:21;5.10;99.90
5118;DHT22;2578;51.622;7.046;2023-02-24T15:03:52;5.20;1.00
5118;DHT22;2578;51.622;7.046;2023-02-24T15:06:28;5.20;99.90
5118;DHT22;2578;51.622;7.046;2023-02-24T15:09:04;5.20;99.90
5118;DHT22;2578;51.622;7.046;2023-02-24T15:11:32;5.20;99.90
5118;DHT22;2578;51.622;7.046;2023-02-24T15:14:02;5.20;1.00
5118;DHT22;2578;51.622;7.046;2023-02-24T15:16:42;5.20;1.00
5118;DHT22;2578;51.622;7.046;2023-02-24T15:19:39;5.40;98.90
5118;DHT22;2578;51.622;7.046;2023-02-24T15:22:27;5.60;55.70
5118;DHT22;2578;51.622;7.046;2023-02-24T15:25:20;5.60;1.00
5118;DHT22;2578;51.622;7.046;2023-02-24T15:33:19;5.70;1.00
5118;DHT22;2578;51.622;7.046;2023-02-24T15:35:50;5.60;99.90
5118;DHT22;2578;51.622;7.046;2023-02-24T15:38:22;5.60;99.90
5118;DHT22;2578;51.622;7.046;2023-02-24T15:40:57;5.60;99.90
5118;DHT22;2578;51.622;7.046;2023-02-24T15:43:53;5.60;99.90
5118;DHT22;2578;51.622;7.046;2023-02-24T15:46:23;5.60;1.00
5118;DHT22;2578;51.622;7.046;2023-02-24T15:48:52;5.60;99.90
5118;DHT22;2578;51.622;7.046;2023-02-24T15:51:31;5.50;99.90
5118;DHT22;2578;51.622;7.046;2023-02-24T15:53:58;5.50;99.90
5118;DHT22;2578;51.622;7.046;2023-02-24T15:56:24;6.40;1.00
5118;DHT22;2578;51.622;7.046;2023-02-24T15:58:50;5.50;1.00
5118;DHT22;2578;51.622;7.046;2023-02-24T16:01:15;5.40;1.00
5118;DHT22;2578;51.622;7.046;2023-02-24T16:03:41;5.40;69.60
5118;DHT22;2578;51.622;7.046;2023-02-24T16:06:16;5.50;99.90
5118;DHT22;2578;51.622;7.046;2023-02-24T16:08:43;6.80;1.00
5118;DHT22;2578;51.622;7.046;2023-02-24T16:11:12;6.20;99.90
5118;DHT22;2578;51.622;7.046;2023-02-24T16:13:39;5.30;99.90
5118;DHT22;2578;51.622;7.046;2023-02-24T16:16:11;5.30;99.90
5118;DHT22;2578;51.622;7.046;2023-02-24T16:18:37;5.40;1.00
5118;DHT22;2578;51.622;7.046;2023-02-24T16:21:03;5.40;1.00
5118;DHT22;2578;51.622;7.046;2023-02-24T16:23:29;5.30;1.00
5118;DHT22;2578;51.622;7.046;2023-02-24T16:26:00;5.20;1.00
5118;DHT22;2578;51.622;7.046;2023-02-24T16:28:26;5.10;22.10
5118;DHT22;2578;51.622;7.046;2023-02-24T16:30:52;5.10;99.90
5118;DHT22;2578;51.622;7.046;2023-02-24T16:33:22;5.20;99.90
5118;DHT22;2578;51.622;7.046;2023-02-24T16:35:51;5.20;99.90
5118;DHT22;2578;51.622;7.046;2023-02-24T16:38:18;5.30;1.00
5118;DHT22;2578;51.622;7.046;2023-02-24T16:40:47;5.30;1.00
5118;DHT22;2578;51.622;7.046;2023-02-24T16:43:14;5.30;99.90
5118;DHT22;2578;51.622;7.046;2023-02-24T16:45:41;5.30;99.90
5118;DHT22;2578;51.622;7.046;2023-02-24T16:48:24;5.30;99.90
5118;DHT22;2578;51.622;7.046;2023-02-24T16:50:51;5.30;1.00
5118;DHT22;2578;51.622;7.046;2023-02-24T16:53:19;5.30;25.70
5118;DHT22;2578;51.622;7.046;2023-02-24T16:55:48;5.30;99.90
5118;DHT22;2578;51.622;7.046;2023-02-24T16:58:20;5.30;99.90
5118;DHT22;2578;51.622;7.046;2023-02-24T17:00:49;5.30;1.00
5118;DHT22;2578;51.622;7.046;2023-02-24T17:03:23;5.20;1.00
5118;DHT22;2578;51.622;7.046;2023-02-24T17:05:49;5.20;1.00
5118;DHT22;2578;51.622;7.046;2023-02-24T17:08:16;5.20;99.90
5118;DHT22;2578;51.622;7.046;2023-02-24T17:10:42;5.00;1.00
5118;DHT22;2578;51.622;7.046;2023-02-24T17:13:18;5.10;1.00
5118;DHT22;2578;51.622;7.046;2023-02-24T17:15:44;5.00;1.00
5118;DHT22;2578;51.622;7.046;2023-02-24T17:18:10;5.00;99.90
5118;DHT22;2578;51.622;7.046;2023-02-24T17:20:42;5.00;1.00
5118;DHT22;2578;51.622;7.046;2023-02-24T17:23:10;5.00;99.90
5118;DHT22;2578;51.622;7.046;2023-02-24T17:25:35;5.50;1.00
5118;DHT22;2578;51.622;7.046;2023-02-24T17:28:01;5.10;99.90
5118;DHT22;2578;51.622;7.046;2023-02-24T17:30:30;5.20;99.90
5118;DHT22;2578;51.622;7.046;2023-02-24T17:32:57;5.20;1.00
5118;DHT22;2578;51.622;7.046;2023-02-24T17:35:24;5.20;99.90
5118;DHT22;2578;51.622;7.046;2023-02-24T17:37:50;5.10;1.00
5118;DHT22;2578;51.622;7.046;2023-02-24T17:40:19;5.30;99.90
5118;DHT22;2578;51.622;7.046;2023-02-24T17:42:44;4.80;99.90
5118;DHT22;2578;51.622;7.046;2023-02-24T17:45:11;4.80;99.90
5118;DHT22;2578;51.622;7.046;2023-02-24T17:47:38;4.70;11.00
5118;DHT22;2578;51.622;7.046;2023-02-24T17:50:06;4.50;1.00
5118;DHT22;2578;51.622;7.046;2023-02-24T17:52:32;4.50;26.20
5118;DHT22;2578;51.622;7.046;2023-02-24T17:54:58;4.50;1.00
5118;DHT22;2578;51.622;7.046;2023-02-24T17:57:24;4.50;1.00
5118;DHT22;2578;51.622;7.046;2023-02-24T17:59:51;4.30;99.90
5118;DHT22;2578;51.622;7.046;2023-02-24T18:02:17;4.30;99.90
5118;DHT22;2578;51.622;7.046;2023-02-24T18:04:43;4.30;1.00
5118;DHT22;2578;51.622;7.046;2023-02-24T18:07:10;4.20;99.90
5118;DHT22;2578;51.622;7.046;2023-02-24T18:09:36;4.20;99.90
5118;DHT22;2578;51.622;7.046;2023-02-24T18:12:02;4.20;99.90
5118;DHT22;2578;51.622;7.046;2023-02-24T18:14:28;4.20;99.90
5118;DHT22;2578;51.622;7.046;2023-02-24T18:16:54;4.20;1.00
5118;DHT22;2578;51.622;7.046;2023-02-24T18:19:19;4.10;1.00
5118;DHT22;2578;51.622;7.046;2023-02-24T18:21:45;4.10;99.90
5118;DHT22;2578;51.622;7.046;2023-02-24T18:24:11;4.50;99.90
5118;DHT22;2578;51.622;7.046;2023-02-24T18:26:37;4.10;99.90
5118;DHT22;2578;51.622;7.046;2023-02-24T18:29:04;4.10;1.00
5118;DHT22;2578;51.622;7.046;2023-02-24T18:31:29;4.10;25.40
5118;DHT22;2578;51.622;7.046;2023-02-24T18:33:56;4.20;99.90
5118;DHT22;2578;51.622;7.046;2023-02-24T18:36:22;4.20;99.90
5118;DHT22;2578;51.622;7.046;2023-02-24T18:38:48;4.30;99.90
5118;DHT22;2578;51.622;7.046;2023-02-24T18:41:16;4.20;99.90
5118;DHT22;2578;51.622;7.046;2023-02-24T18:43:45;4.30;99.90
5118;DHT22;2578;51.622;7.046;2023-02-24T18:46:12;4.30;99.90
5118;DHT22;2578;51.622;7.046;2023-02-24T18:48:39;4.10;99.90
5118;DHT22;2578;51.622;7.046;2023-02-24T18:51:06;4.10;99.90
5118;DHT22;2578;51.622;7.046;2023-02-24T18:53:33;4.20;99.90
5118;DHT22;2578;51.622;7.046;2023-02-24T18:56:06;4.20;99.90
5118;DHT22;2578;51.622;7.046;2023-02-24T18:58:32;4.20;99.90
5118;DHT22;2578;51.622;7.046;2023-02-24T19:00:58;4.30;66.50
5118;DHT22;2578;51.622;7.046;2023-02-24T19:03:24;4.10;99.90
5118;DHT22;2578;51.622;7.046;2023-02-24T19:05:50;4.00;1.00
5118;DHT22;2578;51.622;7.046;2023-02-24T19:08:16;3.90;99.90
5118;DHT22;2578;51.622;7.046;2023-02-24T19:10:42;4.30;99.90